sensor_id;sensor_type;location;lat;lon;timestamp;P1;durP1;ratioP1;P2;durP2;ratioP2
43857;SDS011;29507;51.284;5.758;2023-08-30T00:00:17;8.30;;;5.82;;
43857;SDS011;29507;51.284;5.758;2023-08-30T00:02:46;8.60;;;5.10;;
43857;SDS011;29507;51.284;5.758;2023-08-30T00:05:12;9.45;;;5.93;;
43857;SDS011;29507;51.284;5.758;2023-08-30T00:07:38;10.85;;;5.57;;
43857;SDS011;29507;51.284;5.758;2023-08-30T00:10:05;7.78;;;5.40;;
43857;SDS011;29507;51.284;5.758;2023-08-30T00:12:33;10.75;;;6.15;;
43857;SDS011;29507;51.284;5.758;2023-08-30T00:14:58;12.32;;;5.85;;
43857;SDS011;29507;51.284;5.758;2023-08-30T00:17:24;9.80;;;5.95;;
43857;SDS011;29507;51.284;5.758;2023-08-30T00:19:50;13.88;;;5.95;;
43857;SDS011;29507;51.284;5.758;2023-08-30T00:22:17;11.63;;;6.50;;
43857;SDS011;29507;51.284;5.758;2023-08-30T00:24:43;9.57;;;5.22;;
43857;SDS011;29507;51.284;5.758;2023-08-30T00:27:10;10.73;;;5.70;;
43857;SDS011;29507;51.284;5.758;2023-08-30T00:29:37;12.57;;;7.05;;
43857;SDS011;29507;51.284;5.758;2023-08-30T00:32:02;13.80;;;6.00;;
43857;SDS011;29507;51.284;5.758;2023-08-30T00:34:28;9.95;;;5.90;;
43857;SDS011;29507;51.284;5.758;2023-08-30T00:36:54;14.23;;;6.40;;
43857;SDS011;29507;51.284;5.758;2023-08-30T00:39:20;10.77;;;5.65;;
43857;SDS011;29507;51.284;5.758;2023-08-30T00:41:45;10.30;;;6.07;;
43857;SDS011;29507;51.284;5.758;2023-08-30T00:44:11;13.23;;;6.57;;
43857;SDS011;29507;51.284;5.758;2023-08-30T00:46:36;10.75;;;6.63;;
43857;SDS011;29507;51.284;5.758;2023-08-30T00:49:02;10.68;;;6.38;;
43857;SDS011;29507;51.284;5.758;2023-08-30T00:51:29;13.82;;;6.65;;
43857;SDS011;29507;51.284;5.758;2023-08-30T00:53:55;11.25;;;6.80;;
43857;SDS011;29507;51.284;5.758;2023-08-30T00:56:21;10.80;;;5.82;;
43857;SDS011;29507;51.284;5.758;2023-08-30T00:58:48;9.52;;;5.40;;
43857;SDS011;29507;51.284;5.758;2023-08-30T01:01:15;8.45;;;5.80;;
43857;SDS011;29507;51.284;5.758;2023-08-30T01:03:42;8.80;;;5.72;;
43857;SDS011;29507;51.284;5.758;2023-08-30T01:06:08;11.35;;;5.97;;
43857;SDS011;29507;51.284;5.758;2023-08-30T01:08:34;10.90;;;5.38;;
43857;SDS011;29507;51.284;5.758;2023-08-30T01:11:16;11.38;;;5.20;;
43857;SDS011;29507;51.284;5.758;2023-08-30T01:13:56;12.13;;;6.53;;
43857;SDS011;29507;51.284;5.758;2023-08-30T01:16:26;8.40;;;5.15;;
43857;SDS011;29507;51.284;5.758;2023-08-30T01:18:53;8.70;;;5.63;;
43857;SDS011;29507;51.284;5.758;2023-08-30T01:24:07;11.10;;;5.72;;
43857;SDS011;29507;51.284;5.758;2023-08-30T01:29:23;12.23;;;5.78;;
43857;SDS011;29507;51.284;5.758;2023-08-30T01:31:50;8.57;;;5.20;;
43857;SDS011;29507;51.284;5.758;2023-08-30T01:34:16;13.43;;;7.03;;
43857;SDS011;29507;51.284;5.758;2023-08-30T01:36:43;12.93;;;6.80;;
43857;SDS011;29507;51.284;5.758;2023-08-30T01:39:13;8.93;;;5.80;;
43857;SDS011;29507;51.284;5.758;2023-08-30T01:41:39;10.93;;;6.85;;
43857;SDS011;29507;51.284;5.758;2023-08-30T01:44:05;12.50;;;6.57;;
43857;SDS011;29507;51.284;5.758;2023-08-30T01:46:33;11.57;;;6.15;;
43857;SDS011;29507;51.284;5.758;2023-08-30T01:49:01;15.25;;;7.40;;
43857;SDS011;29507;51.284;5.758;2023-08-30T01:51:27;10.73;;;6.10;;
43857;SDS011;29507;51.284;5.758;2023-08-30T01:53:54;9.02;;;5.47;;
43857;SDS011;29507;51.284;5.758;2023-08-30T01:56:22;11.77;;;6.50;;
43857;SDS011;29507;51.284;5.758;2023-08-30T01:58:48;12.48;;;7.65;;
43857;SDS011;29507;51.284;5.758;2023-08-30T02:01:14;11.65;;;6.95;;
43857;SDS011;29507;51.284;5.758;2023-08-30T02:03:43;12.23;;;6.38;;
43857;SDS011;29507;51.284;5.758;2023-08-30T02:06:11;15.13;;;8.45;;
43857;SDS011;29507;51.284;5.758;2023-08-30T02:08:45;12.57;;;7.80;;
43857;SDS011;29507;51.284;5.758;2023-08-30T02:11:17;15.35;;;7.28;;
43857;SDS011;29507;51.284;5.758;2023-08-30T02:13:44;13.70;;;8.18;;
43857;SDS011;29507;51.284;5.758;2023-08-30T02:16:11;18.35;;;7.63;;
43857;SDS011;29507;51.284;5.758;2023-08-30T02:18:38;15.18;;;8.02;;
43857;SDS011;29507;51.284;5.758;2023-08-30T02:21:05;16.30;;;7.47;;
43857;SDS011;29507;51.284;5.758;2023-08-30T02:23:31;12.25;;;8.10;;
43857;SDS011;29507;51.284;5.758;2023-08-30T02:25:57;13.10;;;7.50;;
43857;SDS011;29507;51.284;5.758;2023-08-30T02:28:23;13.13;;;8.23;;
43857;SDS011;29507;51.284;5.758;2023-08-30T02:30:49;15.55;;;7.95;;
43857;SDS011;29507;51.284;5.758;2023-08-30T02:33:17;14.98;;;7.30;;
43857;SDS011;29507;51.284;5.758;2023-08-30T02:35:43;12.82;;;7.18;;
43857;SDS011;29507;51.284;5.758;2023-08-30T02:38:09;16.30;;;7.57;;
43857;SDS011;29507;51.284;5.758;2023-08-30T02:40:34;12.38;;;7.47;;
43857;SDS011;29507;51.284;5.758;2023-08-30T02:43:00;12.35;;;7.60;;
43857;SDS011;29507;51.284;5.758;2023-08-30T02:45:25;14.55;;;8.57;;
43857;SDS011;29507;51.284;5.758;2023-08-30T02:47:51;14.77;;;7.32;;
43857;SDS011;29507;51.284;5.758;2023-08-30T02:50:21;13.40;;;7.63;;
43857;SDS011;29507;51.284;5.758;2023-08-30T02:52:47;14.57;;;8.15;;
43857;SDS011;29507;51.284;5.758;2023-08-30T02:55:12;13.10;;;8.07;;
43857;SDS011;29507;51.284;5.758;2023-08-30T02:57:38;13.20;;;7.60;;
43857;SDS011;29507;51.284;5.758;2023-08-30T03:00:03;13.77;;;7.88;;
43857;SDS011;29507;51.284;5.758;2023-08-30T03:02:31;16.25;;;8.57;;
43857;SDS011;29507;51.284;5.758;2023-08-30T03:04:58;17.95;;;8.20;;
43857;SDS011;29507;51.284;5.758;2023-08-30T03:07:24;14.73;;;8.38;;
43857;SDS011;29507;51.284;5.758;2023-08-30T03:09:53;17.50;;;7.57;;
43857;SDS011;29507;51.284;5.758;2023-08-30T03:12:19;15.00;;;8.70;;
43857;SDS011;29507;51.284;5.758;2023-08-30T03:14:45;18.60;;;9.00;;
43857;SDS011;29507;51.284;5.758;2023-08-30T03:17:11;15.43;;;8.40;;
43857;SDS011;29507;51.284;5.758;2023-08-30T03:19:37;16.25;;;8.85;;
43857;SDS011;29507;51.284;5.758;2023-08-30T03:22:02;12.35;;;7.90;;
43857;SDS011;29507;51.284;5.758;2023-08-30T03:24:28;15.82;;;8.98;;
43857;SDS011;29507;51.284;5.758;2023-08-30T03:26:54;21.23;;;8.45;;
43857;SDS011;29507;51.284;5.758;2023-08-30T03:29:19;16.50;;;9.15;;
43857;SDS011;29507;51.284;5.758;2023-08-30T03:31:45;16.77;;;9.35;;
43857;SDS011;29507;51.284;5.758;2023-08-30T03:34:11;14.55;;;8.25;;
43857;SDS011;29507;51.284;5.758;2023-08-30T03:36:37;16.45;;;9.20;;
43857;SDS011;29507;51.284;5.758;2023-08-30T03:39:03;20.27;;;10.45;;
43857;SDS011;29507;51.284;5.758;2023-08-30T03:41:28;17.45;;;9.15;;
43857;SDS011;29507;51.284;5.758;2023-08-30T03:43:54;14.68;;;8.65;;
43857;SDS011;29507;51.284;5.758;2023-08-30T03:46:20;15.38;;;9.02;;
43857;SDS011;29507;51.284;5.758;2023-08-30T03:48:45;13.10;;;8.13;;
43857;SDS011;29507;51.284;5.758;2023-08-30T03:51:11;19.75;;;10.55;;
43857;SDS011;29507;51.284;5.758;2023-08-30T03:53:37;16.95;;;9.32;;
43857;SDS011;29507;51.284;5.758;2023-08-30T03:56:03;15.40;;;8.88;;
43857;SDS011;29507;51.284;5.758;2023-08-30T03:58:29;15.27;;;9.07;;
43857;SDS011;29507;51.284;5.758;2023-08-30T04:00:56;16.00;;;9.57;;
43857;SDS011;29507;51.284;5.758;2023-08-30T04:03:22;15.85;;;9.73;;
43857;SDS011;29507;51.284;5.758;2023-08-30T04:05:48;17.95;;;9.35;;
43857;SDS011;29507;51.284;5.758;2023-08-30T04:08:22;19.25;;;10.48;;
43857;SDS011;29507;51.284;5.758;2023-08-30T04:10:51;16.02;;;9.68;;
43857;SDS011;29507;51.284;5.758;2023-08-30T04:13:17;15.15;;;9.70;;
43857;SDS011;29507;51.284;5.758;2023-08-30T04:15:43;20.65;;;10.00;;
43857;SDS011;29507;51.284;5.758;2023-08-30T04:18:08;19.55;;;10.13;;
43857;SDS011;29507;51.284;5.758;2023-08-30T04:20:34;21.25;;;9.90;;
43857;SDS011;29507;51.284;5.758;2023-08-30T04:23:00;18.25;;;9.68;;
43857;SDS011;29507;51.284;5.758;2023-08-30T04:25:27;16.17;;;9.95;;
43857;SDS011;29507;51.284;5.758;2023-08-30T04:27:59;14.68;;;10.02;;
43857;SDS011;29507;51.284;5.758;2023-08-30T04:30:24;21.50;;;9.73;;
43857;SDS011;29507;51.284;5.758;2023-08-30T04:32:50;13.82;;;9.05;;
43857;SDS011;29507;51.284;5.758;2023-08-30T04:35:16;17.88;;;10.63;;
43857;SDS011;29507;51.284;5.758;2023-08-30T04:37:42;18.25;;;9.85;;
43857;SDS011;29507;51.284;5.758;2023-08-30T04:40:08;16.38;;;10.50;;
43857;SDS011;29507;51.284;5.758;2023-08-30T04:42:34;19.63;;;10.32;;
43857;SDS011;29507;51.284;5.758;2023-08-30T04:45:00;20.45;;;10.60;;
43857;SDS011;29507;51.284;5.758;2023-08-30T04:47:28;18.02;;;10.65;;
43857;SDS011;29507;51.284;5.758;2023-08-30T04:49:54;20.15;;;10.90;;
43857;SDS011;29507;51.284;5.758;2023-08-30T04:52:20;23.73;;;11.40;;
43857;SDS011;29507;51.284;5.758;2023-08-30T04:54:45;18.80;;;9.85;;
43857;SDS011;29507;51.284;5.758;2023-08-30T04:57:11;20.25;;;12.05;;
43857;SDS011;29507;51.284;5.758;2023-08-30T04:59:43;19.70;;;10.40;;
43857;SDS011;29507;51.284;5.758;2023-08-30T05:02:09;17.33;;;10.40;;
43857;SDS011;29507;51.284;5.758;2023-08-30T05:04:35;20.60;;;11.32;;
43857;SDS011;29507;51.284;5.758;2023-08-30T05:07:01;19.27;;;10.90;;
43857;SDS011;29507;51.284;5.758;2023-08-30T05:09:28;20.42;;;11.77;;
43857;SDS011;29507;51.284;5.758;2023-08-30T05:11:55;23.00;;;12.85;;
43857;SDS011;29507;51.284;5.758;2023-08-30T05:14:20;23.08;;;13.10;;
43857;SDS011;29507;51.284;5.758;2023-08-30T05:16:46;22.13;;;13.15;;
43857;SDS011;29507;51.284;5.758;2023-08-30T05:19:13;24.55;;;13.48;;
43857;SDS011;29507;51.284;5.758;2023-08-30T05:21:39;19.13;;;11.70;;
43857;SDS011;29507;51.284;5.758;2023-08-30T05:24:04;21.10;;;13.52;;
43857;SDS011;29507;51.284;5.758;2023-08-30T05:26:33;24.88;;;13.95;;
43857;SDS011;29507;51.284;5.758;2023-08-30T05:28:59;30.92;;;14.23;;
43857;SDS011;29507;51.284;5.758;2023-08-30T05:31:24;21.45;;;12.75;;
43857;SDS011;29507;51.284;5.758;2023-08-30T05:33:50;22.95;;;13.55;;
43857;SDS011;29507;51.284;5.758;2023-08-30T05:36:16;22.65;;;13.68;;
43857;SDS011;29507;51.284;5.758;2023-08-30T05:38:43;25.17;;;13.57;;
43857;SDS011;29507;51.284;5.758;2023-08-30T05:41:08;24.75;;;14.10;;
43857;SDS011;29507;51.284;5.758;2023-08-30T05:43:34;26.25;;;13.88;;
43857;SDS011;29507;51.284;5.758;2023-08-30T05:46:00;22.20;;;12.48;;
43857;SDS011;29507;51.284;5.758;2023-08-30T05:48:29;23.45;;;12.88;;
43857;SDS011;29507;51.284;5.758;2023-08-30T05:50:55;21.55;;;12.70;;
43857;SDS011;29507;51.284;5.758;2023-08-30T05:53:21;19.27;;;12.48;;
43857;SDS011;29507;51.284;5.758;2023-08-30T05:55:47;20.85;;;12.13;;
43857;SDS011;29507;51.284;5.758;2023-08-30T05:58:13;19.95;;;12.27;;
43857;SDS011;29507;51.284;5.758;2023-08-30T06:00:40;18.88;;;11.82;;
43857;SDS011;29507;51.284;5.758;2023-08-30T06:03:06;21.35;;;11.23;;
43857;SDS011;29507;51.284;5.758;2023-08-30T06:05:31;18.60;;;10.98;;
43857;SDS011;29507;51.284;5.758;2023-08-30T06:07:58;16.73;;;10.43;;
43857;SDS011;29507;51.284;5.758;2023-08-30T06:10:23;19.17;;;11.52;;
43857;SDS011;29507;51.284;5.758;2023-08-30T06:12:49;17.13;;;10.75;;
43857;SDS011;29507;51.284;5.758;2023-08-30T06:15:14;19.80;;;11.30;;
43857;SDS011;29507;51.284;5.758;2023-08-30T06:17:40;22.67;;;11.07;;
43857;SDS011;29507;51.284;5.758;2023-08-30T06:20:06;19.98;;;10.80;;
43857;SDS011;29507;51.284;5.758;2023-08-30T06:22:32;18.58;;;10.40;;
43857;SDS011;29507;51.284;5.758;2023-08-30T06:24:57;18.85;;;11.13;;
43857;SDS011;29507;51.284;5.758;2023-08-30T06:27:23;17.05;;;10.95;;
43857;SDS011;29507;51.284;5.758;2023-08-30T06:29:49;17.13;;;10.35;;
43857;SDS011;29507;51.284;5.758;2023-08-30T06:32:15;16.35;;;10.68;;
43857;SDS011;29507;51.284;5.758;2023-08-30T06:34:42;19.52;;;11.00;;
43857;SDS011;29507;51.284;5.758;2023-08-30T06:37:07;20.00;;;10.25;;
43857;SDS011;29507;51.284;5.758;2023-08-30T06:39:33;15.50;;;9.70;;
43857;SDS011;29507;51.284;5.758;2023-08-30T06:42:02;15.45;;;10.13;;
43857;SDS011;29507;51.284;5.758;2023-08-30T06:44:29;13.32;;;9.18;;
43857;SDS011;29507;51.284;5.758;2023-08-30T06:46:55;18.75;;;10.15;;
43857;SDS011;29507;51.284;5.758;2023-08-30T06:49:21;13.35;;;9.00;;
43857;SDS011;29507;51.284;5.758;2023-08-30T06:51:47;14.07;;;8.55;;
43857;SDS011;29507;51.284;5.758;2023-08-30T06:54:13;12.23;;;7.85;;
43857;SDS011;29507;51.284;5.758;2023-08-30T06:56:39;16.08;;;9.40;;
43857;SDS011;29507;51.284;5.758;2023-08-30T06:59:04;13.80;;;8.15;;
43857;SDS011;29507;51.284;5.758;2023-08-30T07:01:30;12.57;;;8.20;;
43857;SDS011;29507;51.284;5.758;2023-08-30T07:03:56;14.05;;;7.53;;
43857;SDS011;29507;51.284;5.758;2023-08-30T07:06:22;12.23;;;7.43;;
43857;SDS011;29507;51.284;5.758;2023-08-30T07:08:48;16.52;;;8.80;;
43857;SDS011;29507;51.284;5.758;2023-08-30T07:11:13;13.40;;;7.78;;
43857;SDS011;29507;51.284;5.758;2023-08-30T07:13:39;13.48;;;6.80;;
43857;SDS011;29507;51.284;5.758;2023-08-30T07:16:05;13.25;;;6.78;;
43857;SDS011;29507;51.284;5.758;2023-08-30T07:18:30;11.13;;;6.07;;
43857;SDS011;29507;51.284;5.758;2023-08-30T07:20:56;9.70;;;6.53;;
43857;SDS011;29507;51.284;5.758;2023-08-30T07:23:22;13.60;;;6.80;;
43857;SDS011;29507;51.284;5.758;2023-08-30T07:25:47;10.07;;;6.25;;
43857;SDS011;29507;51.284;5.758;2023-08-30T07:28:13;11.02;;;6.13;;
43857;SDS011;29507;51.284;5.758;2023-08-30T07:30:38;10.77;;;5.40;;
43857;SDS011;29507;51.284;5.758;2023-08-30T07:33:04;8.60;;;4.82;;
43857;SDS011;29507;51.284;5.758;2023-08-30T07:35:30;10.43;;;4.85;;
43857;SDS011;29507;51.284;5.758;2023-08-30T07:37:57;8.30;;;4.78;;
43857;SDS011;29507;51.284;5.758;2023-08-30T07:40:23;7.53;;;4.40;;
43857;SDS011;29507;51.284;5.758;2023-08-30T07:42:53;11.63;;;4.47;;
43857;SDS011;29507;51.284;5.758;2023-08-30T07:45:19;11.15;;;3.78;;
43857;SDS011;29507;51.284;5.758;2023-08-30T07:47:44;7.28;;;4.35;;
43857;SDS011;29507;51.284;5.758;2023-08-30T07:50:10;9.77;;;5.00;;
43857;SDS011;29507;51.284;5.758;2023-08-30T07:52:35;7.85;;;4.20;;
43857;SDS011;29507;51.284;5.758;2023-08-30T07:55:01;8.02;;;4.35;;
43857;SDS011;29507;51.284;5.758;2023-08-30T07:57:27;7.82;;;4.32;;
43857;SDS011;29507;51.284;5.758;2023-08-30T07:59:53;7.97;;;3.67;;
43857;SDS011;29507;51.284;5.758;2023-08-30T08:02:18;10.55;;;3.40;;
43857;SDS011;29507;51.284;5.758;2023-08-30T08:04:44;8.32;;;3.92;;
43857;SDS011;29507;51.284;5.758;2023-08-30T08:07:10;5.80;;;3.20;;
43857;SDS011;29507;51.284;5.758;2023-08-30T08:09:35;4.70;;;2.88;;
43857;SDS011;29507;51.284;5.758;2023-08-30T08:12:02;9.48;;;3.28;;
43857;SDS011;29507;51.284;5.758;2023-08-30T08:14:28;7.00;;;3.17;;
43857;SDS011;29507;51.284;5.758;2023-08-30T08:16:54;7.35;;;2.88;;
43857;SDS011;29507;51.284;5.758;2023-08-30T08:19:19;7.47;;;3.05;;
43857;SDS011;29507;51.284;5.758;2023-08-30T08:21:46;7.57;;;2.85;;
43857;SDS011;29507;51.284;5.758;2023-08-30T08:24:12;6.85;;;2.80;;
43857;SDS011;29507;51.284;5.758;2023-08-30T08:26:38;6.35;;;3.22;;
43857;SDS011;29507;51.284;5.758;2023-08-30T08:29:03;4.65;;;2.67;;
43857;SDS011;29507;51.284;5.758;2023-08-30T08:31:29;6.57;;;3.17;;
43857;SDS011;29507;51.284;5.758;2023-08-30T08:34:10;5.07;;;2.88;;
43857;SDS011;29507;51.284;5.758;2023-08-30T08:36:41;8.25;;;3.38;;
43857;SDS011;29507;51.284;5.758;2023-08-30T08:39:08;6.75;;;3.55;;
43857;SDS011;29507;51.284;5.758;2023-08-30T08:41:35;8.13;;;2.95;;
43857;SDS011;29507;51.284;5.758;2023-08-30T08:44:07;7.70;;;3.30;;
43857;SDS011;29507;51.284;5.758;2023-08-30T08:46:34;10.75;;;3.65;;
43857;SDS011;29507;51.284;5.758;2023-08-30T08:49:07;6.88;;;3.13;;
43857;SDS011;29507;51.284;5.758;2023-08-30T08:51:38;7.63;;;3.67;;
43857;SDS011;29507;51.284;5.758;2023-08-30T08:54:05;7.53;;;3.20;;
43857;SDS011;29507;51.284;5.758;2023-08-30T08:56:31;6.18;;;3.58;;
43857;SDS011;29507;51.284;5.758;2023-08-30T08:58:58;7.90;;;3.30;;
43857;SDS011;29507;51.284;5.758;2023-08-30T09:01:25;7.25;;;4.25;;
43857;SDS011;29507;51.284;5.758;2023-08-30T09:03:51;6.85;;;3.58;;
43857;SDS011;29507;51.284;5.758;2023-08-30T09:06:17;9.48;;;3.83;;
43857;SDS011;29507;51.284;5.758;2023-08-30T09:08:43;9.02;;;3.97;;
43857;SDS011;29507;51.284;5.758;2023-08-30T09:11:09;7.68;;;3.95;;
43857;SDS011;29507;51.284;5.758;2023-08-30T09:13:34;8.80;;;3.80;;
43857;SDS011;29507;51.284;5.758;2023-08-30T09:16:00;6.65;;;4.10;;
43857;SDS011;29507;51.284;5.758;2023-08-30T09:18:27;9.80;;;3.83;;
43857;SDS011;29507;51.284;5.758;2023-08-30T09:21:04;5.15;;;3.13;;
43857;SDS011;29507;51.284;5.758;2023-08-30T09:23:30;10.48;;;3.55;;
43857;SDS011;29507;51.284;5.758;2023-08-30T09:25:56;5.60;;;3.30;;
43857;SDS011;29507;51.284;5.758;2023-08-30T09:28:22;5.63;;;3.10;;
43857;SDS011;29507;51.284;5.758;2023-08-30T09:30:50;7.78;;;3.50;;
43857;SDS011;29507;51.284;5.758;2023-08-30T09:35:54;6.03;;;3.47;;
43857;SDS011;29507;51.284;5.758;2023-08-30T09:38:20;6.38;;;3.00;;
43857;SDS011;29507;51.284;5.758;2023-08-30T09:40:47;8.30;;;3.30;;
43857;SDS011;29507;51.284;5.758;2023-08-30T09:43:12;6.20;;;3.35;;
43857;SDS011;29507;51.284;5.758;2023-08-30T09:45:40;7.88;;;3.30;;
43857;SDS011;29507;51.284;5.758;2023-08-30T09:48:06;7.05;;;3.55;;
43857;SDS011;29507;51.284;5.758;2023-08-30T09:50:33;7.65;;;3.53;;
43857;SDS011;29507;51.284;5.758;2023-08-30T09:53:02;4.50;;;2.90;;
43857;SDS011;29507;51.284;5.758;2023-08-30T09:55:32;6.22;;;3.70;;
43857;SDS011;29507;51.284;5.758;2023-08-30T09:57:59;5.70;;;3.28;;
43857;SDS011;29507;51.284;5.758;2023-08-30T10:00:27;6.78;;;3.35;;
43857;SDS011;29507;51.284;5.758;2023-08-30T10:02:53;5.53;;;3.20;;
43857;SDS011;29507;51.284;5.758;2023-08-30T10:05:20;5.22;;;3.03;;
43857;SDS011;29507;51.284;5.758;2023-08-30T10:07:46;6.60;;;3.50;;
43857;SDS011;29507;51.284;5.758;2023-08-30T10:10:12;6.75;;;3.28;;
43857;SDS011;29507;51.284;5.758;2023-08-30T10:12:38;5.07;;;3.03;;
43857;SDS011;29507;51.284;5.758;2023-08-30T10:15:06;6.70;;;3.60;;
43857;SDS011;29507;51.284;5.758;2023-08-30T10:17:32;7.88;;;3.33;;
43857;SDS011;29507;51.284;5.758;2023-08-30T10:20:03;5.05;;;2.80;;
43857;SDS011;29507;51.284;5.758;2023-08-30T10:22:31;4.47;;;2.65;;
43857;SDS011;29507;51.284;5.758;2023-08-30T10:25:04;6.35;;;3.25;;
43857;SDS011;29507;51.284;5.758;2023-08-30T10:27:34;7.57;;;3.15;;
43857;SDS011;29507;51.284;5.758;2023-08-30T10:30:02;7.80;;;3.20;;
43857;SDS011;29507;51.284;5.758;2023-08-30T10:32:30;5.38;;;2.88;;
43857;SDS011;29507;51.284;5.758;2023-08-30T10:35:00;5.18;;;2.63;;
43857;SDS011;29507;51.284;5.758;2023-08-30T10:37:26;5.28;;;3.13;;
43857;SDS011;29507;51.284;5.758;2023-08-30T10:39:53;5.13;;;3.03;;
43857;SDS011;29507;51.284;5.758;2023-08-30T10:42:24;7.00;;;3.17;;
43857;SDS011;29507;51.284;5.758;2023-08-30T10:44:59;6.72;;;2.92;;
43857;SDS011;29507;51.284;5.758;2023-08-30T10:47:34;5.60;;;2.88;;
43857;SDS011;29507;51.284;5.758;2023-08-30T10:50:09;4.95;;;2.78;;
43857;SDS011;29507;51.284;5.758;2023-08-30T10:52:36;4.30;;;2.45;;
43857;SDS011;29507;51.284;5.758;2023-08-30T10:57:35;8.18;;;2.58;;
43857;SDS011;29507;51.284;5.758;2023-08-30T11:02:34;3.40;;;2.22;;
43857;SDS011;29507;51.284;5.758;2023-08-30T11:05:01;5.05;;;2.58;;
43857;SDS011;29507;51.284;5.758;2023-08-30T11:07:28;4.18;;;2.20;;
43857;SDS011;29507;51.284;5.758;2023-08-30T11:09:54;4.22;;;2.15;;
43857;SDS011;29507;51.284;5.758;2023-08-30T11:12:20;3.45;;;2.15;;
43857;SDS011;29507;51.284;5.758;2023-08-30T11:14:51;3.95;;;2.15;;
43857;SDS011;29507;51.284;5.758;2023-08-30T11:17:17;4.22;;;2.25;;
43857;SDS011;29507;51.284;5.758;2023-08-30T11:19:43;4.00;;;2.35;;
43857;SDS011;29507;51.284;5.758;2023-08-30T11:22:09;3.90;;;2.35;;
43857;SDS011;29507;51.284;5.758;2023-08-30T11:24:35;3.58;;;2.15;;
43857;SDS011;29507;51.284;5.758;2023-08-30T11:27:01;3.63;;;2.28;;
43857;SDS011;29507;51.284;5.758;2023-08-30T11:29:27;3.97;;;2.40;;
43857;SDS011;29507;51.284;5.758;2023-08-30T11:31:53;4.93;;;2.65;;
43857;SDS011;29507;51.284;5.758;2023-08-30T11:34:21;4.07;;;2.67;;
43857;SDS011;29507;51.284;5.758;2023-08-30T11:39:14;4.65;;;2.25;;
43857;SDS011;29507;51.284;5.758;2023-08-30T11:41:44;4.28;;;2.67;;
43857;SDS011;29507;51.284;5.758;2023-08-30T11:44:09;4.60;;;2.50;;
43857;SDS011;29507;51.284;5.758;2023-08-30T11:46:35;5.63;;;2.42;;
43857;SDS011;29507;51.284;5.758;2023-08-30T11:49:01;5.13;;;2.42;;
43857;SDS011;29507;51.284;5.758;2023-08-30T11:51:28;5.30;;;2.60;;
43857;SDS011;29507;51.284;5.758;2023-08-30T11:53:58;4.90;;;2.55;;
43857;SDS011;29507;51.284;5.758;2023-08-30T11:56:24;6.00;;;2.55;;
43857;SDS011;29507;51.284;5.758;2023-08-30T11:58:50;4.43;;;2.75;;
43857;SDS011;29507;51.284;5.758;2023-08-30T12:01:17;5.50;;;3.05;;
43857;SDS011;29507;51.284;5.758;2023-08-30T12:03:44;4.50;;;2.67;;
43857;SDS011;29507;51.284;5.758;2023-08-30T12:06:15;5.85;;;2.97;;
43857;SDS011;29507;51.284;5.758;2023-08-30T12:08:41;5.60;;;2.95;;
43857;SDS011;29507;51.284;5.758;2023-08-30T12:11:17;4.70;;;2.90;;
43857;SDS011;29507;51.284;5.758;2023-08-30T12:13:45;5.70;;;3.25;;
43857;SDS011;29507;51.284;5.758;2023-08-30T12:16:18;5.15;;;3.15;;
43857;SDS011;29507;51.284;5.758;2023-08-30T12:18:45;7.53;;;3.28;;
43857;SDS011;29507;51.284;5.758;2023-08-30T12:21:12;5.35;;;3.40;;
43857;SDS011;29507;51.284;5.758;2023-08-30T12:23:38;4.45;;;2.90;;
43857;SDS011;29507;51.284;5.758;2023-08-30T12:28:30;4.85;;;2.90;;
43857;SDS011;29507;51.284;5.758;2023-08-30T12:30:57;4.53;;;3.08;;
43857;SDS011;29507;51.284;5.758;2023-08-30T12:33:23;6.95;;;3.35;;
43857;SDS011;29507;51.284;5.758;2023-08-30T12:35:53;7.55;;;3.70;;
43857;SDS011;29507;51.284;5.758;2023-08-30T12:38:20;5.50;;;3.30;;
43857;SDS011;29507;51.284;5.758;2023-08-30T12:40:46;6.53;;;3.72;;
43857;SDS011;29507;51.284;5.758;2023-08-30T12:43:13;5.47;;;2.95;;
43857;SDS011;29507;51.284;5.758;2023-08-30T12:45:40;7.07;;;3.35;;
43857;SDS011;29507;51.284;5.758;2023-08-30T12:48:07;4.70;;;3.13;;
43857;SDS011;29507;51.284;5.758;2023-08-30T12:50:33;4.93;;;3.13;;
43857;SDS011;29507;51.284;5.758;2023-08-30T12:53:03;6.03;;;2.97;;
43857;SDS011;29507;51.284;5.758;2023-08-30T12:55:32;6.25;;;3.50;;
43857;SDS011;29507;51.284;5.758;2023-08-30T12:57:59;4.97;;;2.85;;
43857;SDS011;29507;51.284;5.758;2023-08-30T13:00:25;6.18;;;3.42;;
43857;SDS011;29507;51.284;5.758;2023-08-30T13:02:50;6.00;;;3.35;;
43857;SDS011;29507;51.284;5.758;2023-08-30T13:05:16;5.63;;;3.20;;
43857;SDS011;29507;51.284;5.758;2023-08-30T13:07:42;7.15;;;3.17;;
43857;SDS011;29507;51.284;5.758;2023-08-30T13:10:08;7.43;;;3.58;;
43857;SDS011;29507;51.284;5.758;2023-08-30T13:12:35;8.95;;;3.38;;
43857;SDS011;29507;51.284;5.758;2023-08-30T13:15:01;7.07;;;3.85;;
43857;SDS011;29507;51.284;5.758;2023-08-30T13:17:27;7.75;;;3.30;;
43857;SDS011;29507;51.284;5.758;2023-08-30T13:19:53;5.30;;;3.15;;
43857;SDS011;29507;51.284;5.758;2023-08-30T13:22:19;5.57;;;3.40;;
43857;SDS011;29507;51.284;5.758;2023-08-30T13:24:44;6.70;;;3.17;;
43857;SDS011;29507;51.284;5.758;2023-08-30T13:27:10;10.00;;;3.85;;
43857;SDS011;29507;51.284;5.758;2023-08-30T13:29:36;9.15;;;3.67;;
43857;SDS011;29507;51.284;5.758;2023-08-30T13:32:02;6.18;;;3.40;;
43857;SDS011;29507;51.284;5.758;2023-08-30T13:34:28;6.93;;;3.15;;
43857;SDS011;29507;51.284;5.758;2023-08-30T13:36:54;5.93;;;3.53;;
43857;SDS011;29507;51.284;5.758;2023-08-30T13:39:19;6.03;;;3.55;;
43857;SDS011;29507;51.284;5.758;2023-08-30T13:41:46;6.97;;;3.72;;
43857;SDS011;29507;51.284;5.758;2023-08-30T13:44:12;6.40;;;3.95;;
43857;SDS011;29507;51.284;5.758;2023-08-30T13:46:38;6.32;;;3.70;;
43857;SDS011;29507;51.284;5.758;2023-08-30T13:49:04;5.88;;;2.65;;
43857;SDS011;29507;51.284;5.758;2023-08-30T13:51:30;6.22;;;3.05;;
43857;SDS011;29507;51.284;5.758;2023-08-30T13:53:55;5.22;;;2.70;;
43857;SDS011;29507;51.284;5.758;2023-08-30T13:56:21;5.90;;;3.28;;
43857;SDS011;29507;51.284;5.758;2023-08-30T13:58:48;5.72;;;3.25;;
43857;SDS011;29507;51.284;5.758;2023-08-30T14:01:13;9.73;;;3.45;;
43857;SDS011;29507;51.284;5.758;2023-08-30T14:03:39;5.38;;;3.03;;
43857;SDS011;29507;51.284;5.758;2023-08-30T14:06:05;6.03;;;3.08;;
43857;SDS011;29507;51.284;5.758;2023-08-30T14:08:31;5.25;;;3.15;;
43857;SDS011;29507;51.284;5.758;2023-08-30T14:10:57;5.88;;;3.20;;
43857;SDS011;29507;51.284;5.758;2023-08-30T14:13:23;6.25;;;3.05;;
43857;SDS011;29507;51.284;5.758;2023-08-30T14:15:49;6.93;;;2.97;;
43857;SDS011;29507;51.284;5.758;2023-08-30T14:18:15;5.82;;;2.70;;
43857;SDS011;29507;51.284;5.758;2023-08-30T14:20:41;4.72;;;2.75;;
43857;SDS011;29507;51.284;5.758;2023-08-30T14:23:07;6.10;;;3.25;;
43857;SDS011;29507;51.284;5.758;2023-08-30T14:25:33;5.35;;;2.95;;
43857;SDS011;29507;51.284;5.758;2023-08-30T14:27:59;6.18;;;2.75;;
43857;SDS011;29507;51.284;5.758;2023-08-30T14:30:25;6.20;;;3.05;;
43857;SDS011;29507;51.284;5.758;2023-08-30T14:32:51;5.68;;;2.10;;
43857;SDS011;29507;51.284;5.758;2023-08-30T14:35:17;4.68;;;1.85;;
43857;SDS011;29507;51.284;5.758;2023-08-30T14:37:45;3.20;;;1.25;;
43857;SDS011;29507;51.284;5.758;2023-08-30T14:40:12;6.55;;;1.05;;
43857;SDS011;29507;51.284;5.758;2023-08-30T14:42:38;5.22;;;1.35;;
43857;SDS011;29507;51.284;5.758;2023-08-30T14:45:04;6.45;;;1.23;;
43857;SDS011;29507;51.284;5.758;2023-08-30T14:47:32;6.72;;;1.20;;
43857;SDS011;29507;51.284;5.758;2023-08-30T14:49:58;6.07;;;1.65;;
43857;SDS011;29507;51.284;5.758;2023-08-30T14:52:24;5.45;;;1.23;;